Hondo, Texas
Current Conditions -  °F | °C
As of 6:51 AM on Thursday 30 Oct 2014 (Local Time) from KHDO Reporting Station
Broken Clouds Broken Clouds  
Wind Chill: 60°   Ceiling: 1400
Heat Index: 60°   Visibility: 8mi
Dew Point: 59°   Wind: 0mph
Humidity: 96%   Direction: NA
Pressure: 30.13"   Gusts: NA
Location:  29.35°N, 99.14°W
Report Text: KHDO 301151Z AUTO 00000KT 8SM BKN014 16/15 A3013 RMK AO2 SLP190 T01560150 10183 20144 53006
Loading
Personal Weather Stations






























Interactive Weather Map New forecast layout! Learn more

10-Day Weather Forecast

Advertisements
Track Severe Weather on mobile